Time;durP1;ratioP1;P1;durP2;ratioP2;P2;SDS_P1;SDS_P2;PMS_P1;PMS_P2;Temp;Humidity;BMP_temperature;BMP_pressure;BME280_temperature;BME280_humidity;BME280_pressure;Samples;Min_cycle;Max_cycle;Signal;HPM_P1;HPM_P2
2022/05/06 00:01:35;;;;;;;23.23;15.98;;;9.80;99.90;;;;;;5027165;28;20550;-75
2022/05/06 00:04:02;;;;;;;26.27;17.25;;;9.80;99.90;;;;;;5026905;28;20037;-75
2022/05/06 00:06:29;;;;;;;26.50;17.38;;;9.80;99.90;;;;;;5026981;28;20049;-74
2022/05/06 00:08:55;;;;;;;25.75;16.00;;;9.80;99.90;;;;;;5027746;28;20728;-74
2022/05/06 00:11:21;;;;;;;22.63;15.55;;;9.70;99.90;;;;;;5027360;28;20064;-75
2022/05/06 00:13:46;;;;;;;23.50;16.38;;;9.70;99.90;;;;;;5027064;28;20041;-75
2022/05/06 00:16:12;;;;;;;21.60;15.02;;;9.70;99.90;;;;;;5025565;28;20575;-75
2022/05/06 00:18:37;;;;;;;20.17;13.77;;;9.60;99.90;;;;;;5025944;28;20454;-75
2022/05/06 00:21:03;;;;;;;18.48;13.68;;;9.60;99.90;;;;;;5025822;28;20053;-75
2022/05/06 00:23:29;;;;;;;22.88;14.75;;;9.60;99.90;;;;;;5027433;28;20047;-75
2022/05/06 00:25:55;;;;;;;22.15;14.13;;;9.50;99.90;;;;;;5027673;28;20033;-75
2022/05/06 00:28:21;;;;;;;19.83;13.00;;;9.50;99.90;;;;;;5026079;28;20453;-74
2022/05/06 00:30:47;;;;;;;17.15;12.80;;;9.40;99.90;;;;;;5026959;28;20120;-75
2022/05/06 00:33:16;;;;;;;19.23;13.32;;;9.50;99.90;;;;;;5025714;28;20133;-75
2022/05/06 00:35:41;;;;;;;15.70;11.25;;;9.40;99.90;;;;;;5024989;28;20048;-74
2022/05/06 00:38:07;;;;;;;15.48;11.43;;;9.40;99.90;;;;;;5026316;28;20041;-75
2022/05/06 00:40:33;;;;;;;12.77;10.32;;;9.40;99.90;;;;;;5025545;28;20450;-74
2022/05/06 00:43:01;;;;;;;14.77;10.90;;;9.40;99.90;;;;;;5025431;28;20041;-75
2022/05/06 00:45:36;;;;;;;12.60;10.10;;;9.40;99.90;;;;;;5026508;28;20482;-74
2022/05/06 00:48:02;;;;;;;14.27;9.68;;;9.40;99.90;;;;;;5026227;28;20128;-75
2022/05/06 00:50:28;;;;;;;13.73;8.75;;;9.30;99.90;;;;;;5025197;28;20037;-74
2022/05/06 00:52:54;;;;;;;10.57;8.30;;;9.30;99.90;;;;;;5025391;28;20049;-74
2022/05/06 00:55:21;;;;;;;11.43;8.95;;;9.30;99.90;;;;;;5023791;28;20052;-74
2022/05/06 00:57:47;;;;;;;13.13;9.00;;;9.30;99.90;;;;;;5026431;28;20049;-74
2022/05/06 01:00:19;;;;;;;14.20;9.25;;;9.20;99.90;;;;;;5025988;28;20037;-74
2022/05/06 01:02:45;;;;;;;11.85;9.50;;;9.20;99.90;;;;;;5023216;28;20076;-74
2022/05/06 01:05:12;;;;;;;10.65;8.77;;;9.10;99.90;;;;;;5026007;28;20042;-74
2022/05/06 01:07:39;;;;;;;10.40;8.50;;;9.00;99.90;;;;;;5025515;28;20435;-74
2022/05/06 01:10:05;;;;;;;11.35;8.73;;;9.00;99.90;;;;;;5023002;28;20056;-74
2022/05/06 01:12:31;;;;;;;10.52;8.45;;;9.00;99.90;;;;;;5026166;28;20453;-74
2022/05/06 01:14:56;;;;;;;8.88;7.40;;;9.00;99.90;;;;;;5026538;28;20072;-74
2022/05/06 01:17:22;;;;;;;9.73;8.15;;;8.90;99.90;;;;;;5025037;28;20492;-74
2022/05/06 01:19:48;;;;;;;12.32;8.27;;;8.90;99.90;;;;;;5026644;28;20069;-74
2022/05/06 01:22:15;;;;;;;10.05;8.10;;;8.80;99.90;;;;;;5025761;28;20091;-74
2022/05/06 01:24:41;;;;;;;7.28;6.35;;;8.80;99.90;;;;;;5025554;28;20041;-73
2022/05/06 01:27:11;;;;;;;7.07;6.28;;;8.80;99.90;;;;;;5025184;28;20447;-74
2022/05/06 01:29:38;;;;;;;6.28;5.32;;;8.70;99.90;;;;;;5024668;28;20495;-74
2022/05/06 01:32:04;;;;;;;5.25;4.75;;;8.60;99.90;;;;;;5024735;28;20045;-74
2022/05/06 01:34:32;;;;;;;7.60;6.45;;;8.50;99.90;;;;;;5026111;28;20037;-74
2022/05/06 01:37:02;;;;;;;10.63;6.78;;;8.40;99.90;;;;;;5023226;28;20045;-74
2022/05/06 01:39:31;;;;;;;8.18;5.82;;;8.40;99.90;;;;;;5022991;28;20364;-74
2022/05/06 01:42:01;;;;;;;7.97;6.65;;;8.30;99.90;;;;;;5024791;28;20048;-74
2022/05/06 01:44:30;;;;;;;9.00;6.88;;;8.20;99.90;;;;;;5025311;28;20598;-74
2022/05/06 01:46:59;;;;;;;9.27;7.03;;;8.20;99.90;;;;;;5024614;28;20475;-74
2022/05/06 01:49:26;;;;;;;16.02;10.18;;;8.20;99.90;;;;;;5026399;28;20033;-74
2022/05/06 01:51:54;;;;;;;14.40;9.82;;;8.20;99.90;;;;;;5024705;28;20052;-74
2022/05/06 01:54:20;;;;;;;10.00;8.20;;;8.10;99.90;;;;;;5025276;28;20064;-73
2022/05/06 01:56:46;;;;;;;13.00;9.40;;;8.10;99.90;;;;;;5024285;28;20488;-74
2022/05/06 01:59:13;;;;;;;10.82;9.05;;;8.10;99.90;;;;;;5024311;28;20049;-74
2022/05/06 02:01:39;;;;;;;13.23;9.50;;;8.10;99.90;;;;;;5024395;28;20053;-74
2022/05/06 02:06:48;;;;;;;11.93;8.98;;;8.00;99.90;;;;;;5024935;28;20144;-74
2022/05/06 02:09:16;;;;;;;10.77;7.97;;;8.00;99.90;;;;;;5024774;28;20140;-74
2022/05/06 02:11:42;;;;;;;15.57;10.15;;;8.00;99.90;;;;;;5025709;28;20374;-74
2022/05/06 02:14:08;;;;;;;10.90;8.73;;;8.00;99.90;;;;;;5022750;28;20053;-74
2022/05/06 02:16:33;;;;;;;10.73;8.18;;;8.00;99.90;;;;;;5025401;28;20136;-73
2022/05/06 02:18:59;;;;;;;52.63;11.32;;;8.00;99.90;;;;;;5023214;28;20068;-74
2022/05/06 02:21:25;;;;;;;31.90;9.80;;;8.00;99.90;;;;;;5023618;28;20044;-74
2022/05/06 02:23:50;;;;;;;32.55;10.07;;;7.90;99.90;;;;;;5025150;28;20392;-74
2022/05/06 02:26:16;;;;;;;15.48;8.07;;;7.80;99.90;;;;;;5027087;28;20125;-74
2022/05/06 02:28:41;;;;;;;9.35;7.53;;;7.80;99.90;;;;;;5027570;28;20130;-74
2022/05/06 02:33:51;;;;;;;16.83;7.78;;;7.80;99.90;;;;;;5023364;28;20045;-74
2022/05/06 02:36:17;;;;;;;15.25;9.40;;;7.80;99.90;;;;;;5028816;28;20619;-74
2022/05/06 02:38:42;;;;;;;12.15;9.10;;;7.80;99.90;;;;;;5029134;28;20041;-74
2022/05/06 02:41:08;;;;;;;18.52;11.05;;;7.90;99.90;;;;;;5026516;28;20057;-74
2022/05/06 02:43:37;;;;;;;24.60;11.95;;;8.00;99.90;;;;;;5029216;28;20044;-74
2022/05/06 02:46:02;;;;;;;34.00;14.00;;;8.00;99.90;;;;;;5027192;28;20095;-74
2022/05/06 02:48:28;;;;;;;38.38;13.77;;;8.10;99.90;;;;;;5028904;28;20049;-74
2022/05/06 02:50:54;;;;;;;44.90;15.27;;;8.10;99.90;;;;;;5029475;28;20037;-74
2022/05/06 02:53:22;;;;;;;37.00;14.25;;;8.10;99.90;;;;;;5028265;28;20052;-74
2022/05/06 02:55:48;;;;;;;59.28;15.85;;;8.20;99.90;;;;;;5028432;28;20519;-74
2022/05/06 02:58:14;;;;;;;118.47;19.52;;;8.30;99.90;;;;;;5028399;28;20099;-74
2022/05/06 03:00:39;;;;;;;60.63;19.60;;;8.30;99.90;;;;;;5027745;28;20087;-74
2022/05/06 03:03:07;;;;;;;145.48;21.33;;;8.30;99.90;;;;;;5026242;28;20100;-74
2022/05/06 03:05:33;;;;;;;69.53;20.38;;;8.30;99.90;;;;;;5027401;28;20045;-74
2022/05/06 03:08:02;;;;;;;168.60;24.70;;;8.40;99.90;;;;;;5028191;28;20045;-74
2022/05/06 03:10:27;;;;;;;112.40;22.30;;;8.50;99.90;;;;;;5028580;28;20120;-73
2022/05/06 03:12:56;;;;;;;190.25;26.02;;;8.50;99.90;;;;;;5028863;28;20179;-74
2022/05/06 03:15:21;;;;;;;297.33;27.65;;;8.60;99.90;;;;;;5026286;28;20503;-74
2022/05/06 03:17:48;;;;;;;116.05;24.45;;;8.60;99.90;;;;;;5027887;28;20057;-74
2022/05/06 03:20:13;;;;;;;302.58;33.67;;;8.60;99.90;;;;;;5026446;28;20068;-74
2022/05/06 03:22:41;;;;;;;354.75;33.47;;;8.70;99.90;;;;;;5028065;28;20404;-74
2022/05/06 03:25:09;;;;;;;373.70;35.72;;;8.70;99.90;;;;;;5025765;28;20045;-74
2022/05/06 03:30:19;;;;;;;326.55;32.08;;;8.70;99.90;;;;;;5026719;28;20529;-74
2022/05/06 03:32:46;;;;;;;220.52;30.90;;;8.70;99.90;;;;;;5027167;28;20137;-74
2022/05/06 03:35:11;;;;;;;344.40;37.03;;;8.70;99.90;;;;;;5027309;28;20053;-74
2022/05/06 03:37:38;;;;;;;387.95;35.35;;;8.70;99.90;;;;;;5024716;28;20060;-74
2022/05/06 03:40:05;;;;;;;276.33;31.67;;;8.70;99.90;;;;;;5026043;28;20459;-74
2022/05/06 03:42:31;;;;;;;195.93;27.88;;;8.70;99.90;;;;;;5025886;28;20144;-74
2022/05/06 03:44:56;;;;;;;246.05;31.05;;;8.70;99.90;;;;;;5026888;28;20132;-74
2022/05/06 03:47:22;;;;;;;293.92;33.30;;;8.70;99.90;;;;;;5027709;28;20042;-74
2022/05/06 03:51:20;;;;;;;357.15;32.80;;;8.70;99.90;;;;;;5026722;28;20486;-74
2022/05/06 03:52:35;;;;;;;374.10;33.53;;;8.70;99.90;;;;;;5024940;28;20049;-74
2022/05/06 03:55:01;;;;;;;326.50;32.13;;;8.70;99.90;;;;;;5027303;28;20046;-74
2022/05/06 03:57:26;;;;;;;379.35;34.78;;;8.80;99.90;;;;;;5026952;28;20498;-74
2022/05/06 03:59:52;;;;;;;281.85;34.72;;;8.80;99.90;;;;;;5025638;28;20471;-74
2022/05/06 04:02:17;;;;;;;329.85;36.42;;;8.90;99.90;;;;;;5025987;28;20062;-74
2022/05/06 04:04:43;;;;;;;263.02;33.08;;;8.90;99.90;;;;;;5025595;28;20048;-74
2022/05/06 04:07:08;;;;;;;358.33;37.13;;;8.90;99.90;;;;;;5026294;28;20049;-74
2022/05/06 04:09:34;;;;;;;288.15;34.63;;;8.90;99.90;;;;;;5027193;28;20041;-74
2022/05/06 04:11:59;;;;;;;221.13;31.45;;;8.90;99.90;;;;;;5029681;28;20033;-75
2022/05/06 04:14:25;;;;;;;256.58;33.55;;;9.00;99.90;;;;;;5026114;28;20179;-74
2022/05/06 04:16:51;;;;;;;351.88;34.47;;;9.00;99.90;;;;;;5026329;28;20053;-74
2022/05/06 04:19:16;;;;;;;266.02;32.28;;;9.00;99.90;;;;;;5026112;28;20049;-74
2022/05/06 04:24:26;;;;;;;232.20;33.08;;;9.00;99.90;;;;;;5028218;28;20076;-74
2022/05/06 04:26:52;;;;;;;209.85;30.60;;;9.00;99.90;;;;;;5026505;28;20092;-74
2022/05/06 04:29:17;;;;;;;282.27;33.00;;;8.90;99.90;;;;;;5026586;28;20044;-74
2022/05/06 04:31:43;;;;;;;182.13;31.63;;;9.00;99.90;;;;;;5026082;28;20053;-74
2022/05/06 04:34:08;;;;;;;162.48;30.30;;;7.60;99.90;;;;;;5025558;28;20060;-74
2022/05/06 04:36:34;;;;;;;151.52;29.73;;;9.00;99.90;;;;;;5030124;28;20041;-74
2022/05/06 04:39:00;;;;;;;141.38;29.75;;;9.00;99.90;;;;;;5026783;28;20064;-74
2022/05/06 04:41:26;;;;;;;130.10;29.25;;;9.00;99.90;;;;;;5025452;28;20045;-74
2022/05/06 04:43:52;;;;;;;169.90;30.25;;;9.00;99.90;;;;;;5027162;28;20037;-74
2022/05/06 04:46:17;;;;;;;137.23;30.25;;;9.10;99.90;;;;;;5025584;28;20116;-74
2022/05/06 04:48:43;;;;;;;138.88;27.88;;;9.10;99.90;;;;;;5024515;28;20045;-74
2022/05/06 04:51:08;;;;;;;104.22;29.98;;;9.10;99.90;;;;;;5026109;28;20049;-74
2022/05/06 04:53:34;;;;;;;139.15;28.17;;;9.10;99.90;;;;;;5025636;28;20138;-74
2022/05/06 04:55:59;;;;;;;123.03;27.65;;;9.10;99.90;;;;;;5025353;28;20116;-74
2022/05/06 04:58:25;;;;;;;119.80;28.05;;;9.20;99.90;;;;;;5024602;28;20041;-74
2022/05/06 05:00:50;;;;;;;111.47;26.95;;;9.20;99.90;;;;;;5018815;28;20049;-75
2022/05/06 05:03:18;;;;;;;111.88;28.38;;;9.30;99.90;;;;;;5023633;28;20045;-74
2022/05/06 05:05:44;;;;;;;235.05;34.15;;;9.30;99.90;;;;;;5025496;28;20096;-75
2022/05/06 05:08:10;;;;;;;183.30;32.20;;;9.40;99.90;;;;;;5024033;28;20077;-74
2022/05/06 05:10:35;;;;;;;151.07;31.40;;;9.30;99.90;;;;;;5020358;28;20128;-74
2022/05/06 05:13:01;;;;;;;163.13;32.83;;;9.30;99.90;;;;;;5025751;28;20455;-75
2022/05/06 05:15:27;;;;;;;207.30;37.55;;;9.30;99.90;;;;;;5025858;28;20111;-75
2022/05/06 05:17:53;;;;;;;215.07;36.28;;;9.40;99.90;;;;;;5026855;28;20045;-74
2022/05/06 05:20:18;;;;;;;154.52;33.85;;;9.40;99.90;;;;;;5024379;28;20045;-74
2022/05/06 05:22:44;;;;;;;133.65;35.17;;;9.50;99.90;;;;;;5024374;28;20045;-74
2022/05/06 05:25:10;;;;;;;112.53;31.85;;;9.60;99.90;;;;;;5025983;28;20080;-74
2022/05/06 05:27:39;;;;;;;163.50;38.10;;;9.60;99.90;;;;;;5026230;28;20064;-74
2022/05/06 05:30:07;;;;;;;109.97;32.90;;;9.60;99.90;;;;;;5023684;28;20095;-73
2022/05/06 05:32:34;;;;;;;115.78;32.53;;;9.60;99.90;;;;;;5025114;28;20049;-74
2022/05/06 05:34:59;;;;;;;109.93;33.10;;;9.70;99.90;;;;;;5025420;28;20099;-76
2022/05/06 05:37:25;;;;;;;132.15;33.95;;;9.70;99.90;;;;;;5024316;28;20508;-73
2022/05/06 05:39:51;;;;;;;45.30;26.73;;;9.70;99.90;;;;;;5023105;28;20112;-74
2022/05/06 05:42:21;;;;;;;100.68;30.90;;;9.70;99.90;;;;;;5025435;28;20139;-74
2022/05/06 05:50:14;;;;;;;57.33;24.30;;;9.80;99.90;;;;;;5021528;28;20491;-74
2022/05/06 05:52:40;;;;;;;166.32;33.13;;;9.80;99.90;;;;;;5025150;28;20142;-74
2022/05/06 05:55:06;;;;;;;89.90;25.75;;;9.80;99.90;;;;;;5023829;28;20033;-74
2022/05/06 05:57:32;;;;;;;106.85;29.52;;;9.90;99.90;;;;;;5023624;28;20095;-74
2022/05/06 05:59:57;;;;;;;45.97;25.50;;;9.90;99.90;;;;;;5024184;28;20529;-74
2022/05/06 06:02:23;;;;;;;72.32;26.83;;;9.90;99.90;;;;;;5025816;28;20055;-74
2022/05/06 06:04:49;;;;;;;72.40;27.15;;;9.90;99.90;;;;;;5026265;28;20047;-73
2022/05/06 06:07:14;;;;;;;75.80;27.55;;;9.90;99.90;;;;;;5023726;28;20455;-73
2022/05/06 06:09:40;;;;;;;93.72;29.08;;;9.90;99.90;;;;;;5025596;28;20395;-73
2022/05/06 06:12:06;;;;;;;110.50;29.75;;;10.00;99.90;;;;;;5024084;28;20649;-75
2022/05/06 06:14:32;;;;;;;64.75;29.48;;;10.10;99.90;;;;;;5025522;28;20049;-75
2022/05/06 06:16:57;;;;;;;87.15;30.70;;;10.30;99.90;;;;;;5025854;28;20037;-74
2022/05/06 06:19:23;;;;;;;59.72;28.27;;;10.20;99.90;;;;;;5024761;28;20049;-74
2022/05/06 06:21:48;;;;;;;76.38;28.35;;;10.20;99.90;;;;;;5025931;28;20050;-74
2022/05/06 06:24:14;;;;;;;74.13;25.08;;;10.20;99.90;;;;;;5023581;28;20107;-73
2022/05/06 06:26:40;;;;;;;83.15;28.13;;;10.30;99.90;;;;;;5024780;28;20084;-74
2022/05/06 06:29:06;;;;;;;71.78;27.00;;;10.30;99.90;;;;;;5023496;28;20641;-74
2022/05/06 06:31:32;;;;;;;55.67;28.15;;;10.40;99.90;;;;;;5025219;28;20064;-73
2022/05/06 06:34:01;;;;;;;75.07;25.60;;;10.50;99.90;;;;;;5026727;28;20041;-73
2022/05/06 06:36:27;;;;;;;36.90;22.77;;;10.50;99.90;;;;;;5025302;28;20044;-73
2022/05/06 06:38:53;;;;;;;40.15;20.95;;;10.60;99.90;;;;;;5025208;28;20045;-73
2022/05/06 06:41:20;;;;;;;55.08;24.85;;;10.70;99.90;;;;;;5022650;28;20041;-74
2022/05/06 06:43:46;;;;;;;55.95;24.60;;;10.80;99.90;;;;;;5024205;28;20057;-74
2022/05/06 06:46:12;;;;;;;50.28;21.60;;;10.80;99.90;;;;;;5018983;28;20111;-74
2022/05/06 06:48:39;;;;;;;27.13;18.70;;;10.90;99.90;;;;;;5018140;28;20099;-74
2022/05/06 06:51:07;;;;;;;27.67;18.70;;;10.90;99.90;;;;;;5021323;28;20076;-74
2022/05/06 06:53:33;;;;;;;30.63;18.30;;;10.90;99.90;;;;;;5025176;28;20054;-73
2022/05/06 06:55:59;;;;;;;30.15;18.15;;;10.90;99.90;;;;;;5024168;28;20049;-74
2022/05/06 06:58:27;;;;;;;27.92;17.55;;;11.00;99.90;;;;;;5024937;28;20512;-73
2022/05/06 07:00:53;;;;;;;42.45;16.48;;;11.00;99.90;;;;;;5024309;28;20136;-74
2022/05/06 07:03:19;;;;;;;19.55;13.95;;;11.00;99.90;;;;;;5025727;28;20058;-74
2022/05/06 07:13:57;;;;;;;14.73;10.93;;;11.00;99.90;;;;;;5008958;28;20054;-74
2022/05/06 07:16:23;;;;;;;16.95;11.88;;;11.10;99.90;;;;;;5015636;28;20128;-74
2022/05/06 07:18:51;;;;;;;14.90;11.15;;;11.10;99.90;;;;;;5029706;28;20543;-73
2022/05/06 07:21:17;;;;;;;11.15;9.70;;;11.10;99.90;;;;;;5021346;28;20157;-72
2022/05/06 07:23:43;;;;;;;12.82;9.50;;;11.10;99.90;;;;;;5021196;28;20116;-75
2022/05/06 07:26:08;;;;;;;9.02;7.78;;;11.20;99.90;;;;;;5026407;28;20049;-72
2022/05/06 07:28:34;;;;;;;11.07;7.65;;;11.20;99.90;;;;;;5027396;28;20061;-74
2022/05/06 07:30:59;;;;;;;9.68;8.27;;;11.30;99.90;;;;;;5025318;28;20509;-72
2022/05/06 07:33:25;;;;;;;7.97;7.00;;;11.30;99.90;;;;;;5029100;28;20365;-72
2022/05/06 07:35:51;;;;;;;7.38;6.63;;;11.40;99.90;;;;;;5028311;28;20041;-74
2022/05/06 07:38:16;;;;;;;8.15;7.05;;;11.40;99.90;;;;;;5024392;28;20385;-77
2022/05/06 07:40:43;;;;;;;7.75;6.85;;;11.40;99.90;;;;;;5027031;28;20125;-71
2022/05/06 07:43:08;;;;;;;8.27;6.95;;;11.40;99.90;;;;;;5025836;28;20095;-71
2022/05/06 07:45:34;;;;;;;7.18;6.47;;;11.50;99.90;;;;;;5027513;28;20480;-74
2022/05/06 07:48:03;;;;;;;8.60;7.65;;;11.60;99.90;;;;;;5027744;28;20041;-72
2022/05/06 07:50:30;;;;;;;8.15;7.35;;;11.60;99.90;;;;;;5027919;28;20064;-70
2022/05/06 07:52:56;;;;;;;7.75;6.55;;;11.70;99.90;;;;;;5027681;28;20136;-71
2022/05/06 07:55:21;;;;;;;7.35;6.55;;;11.80;99.90;;;;;;5028328;28;20125;-71
2022/05/06 07:57:47;;;;;;;7.75;7.00;;;12.00;99.90;;;;;;5026466;28;20111;-72
2022/05/06 08:00:13;;;;;;;10.65;7.00;;;12.10;99.90;;;;;;5027989;28;20595;-72
2022/05/06 08:05:27;;;;;;;8.05;6.85;;;12.30;99.90;;;;;;5027838;28;20050;-73
2022/05/06 08:07:56;;;;;;;8.13;6.22;;;12.40;99.90;;;;;;5027280;28;20077;-72
2022/05/06 08:10:21;;;;;;;7.78;6.97;;;12.50;99.90;;;;;;5026428;28;20037;-72
2022/05/06 08:12:47;;;;;;;7.88;6.57;;;12.60;99.90;;;;;;5027018;28;20103;-73
2022/05/06 08:15:12;;;;;;;5.72;5.22;;;12.60;99.90;;;;;;5026170;28;20163;-73
2022/05/06 08:17:39;;;;;;;7.10;6.40;;;12.80;99.90;;;;;;5026918;28;20053;-73
2022/05/06 08:20:08;;;;;;;7.68;6.85;;;12.80;99.90;;;;;;5025792;28;20128;-73
2022/05/06 08:22:34;;;;;;;7.15;6.45;;;13.00;99.90;;;;;;5028016;28;20069;-73
2022/05/06 08:25:00;;;;;;;6.45;5.85;;;13.00;99.90;;;;;;5026107;28;20171;-75
2022/05/06 08:27:26;;;;;;;7.68;6.97;;;13.10;99.90;;;;;;5026597;28;20053;-73
2022/05/06 08:29:51;;;;;;;7.53;5.65;;;13.10;99.90;;;;;;5020704;28;20099;-71
2022/05/06 08:32:17;;;;;;;6.50;5.90;;;13.20;99.90;;;;;;5044054;28;20459;-78
2022/05/06 08:34:45;;;;;;;6.60;5.63;;;13.10;99.90;;;;;;5047554;28;20368;-75
2022/05/06 08:37:10;;;;;;;7.07;6.38;;;13.40;99.90;;;;;;5047698;28;20050;-79
2022/05/06 08:39:36;;;;;;;6.65;5.97;;;13.50;99.90;;;;;;5047101;28;20063;-80
2022/05/06 08:42:09;;;;;;;6.38;5.78;;;13.60;99.90;;;;;;5046179;28;20444;-80
2022/05/06 08:52:51;;;;;;;5.90;5.30;;;14.30;99.90;;;;;;5027659;28;20061;-81
2022/05/06 08:55:18;;;;;;;7.57;6.72;;;14.40;99.90;;;;;;5026938;28;20060;-81
2022/05/06 08:57:45;;;;;;;6.93;6.32;;;14.50;99.90;;;;;;5027574;28;20412;-81
2022/05/06 09:00:12;;;;;;;6.38;5.82;;;14.50;99.90;;;;;;5025542;28;20516;-81
2022/05/06 09:02:39;;;;;;;7.13;6.43;;;14.60;99.90;;;;;;5026158;28;20123;-81
2022/05/06 09:05:17;;;;;;;6.60;5.95;;;14.60;99.90;;;;;;5027253;28;20539;-81
2022/05/06 09:07:54;;;;;;;6.80;6.10;;;14.50;99.90;;;;;;5025587;28;20042;-80
2022/05/06 09:10:19;;;;;;;6.15;5.65;;;14.60;99.90;;;;;;5025535;28;20099;-80
2022/05/06 09:12:51;;;;;;;6.97;6.28;;;14.60;99.90;;;;;;5025773;28;20049;-80
2022/05/06 09:18:03;;;;;;;6.35;5.82;;;14.90;99.90;;;;;;5025848;28;20451;-79
2022/05/06 09:20:30;;;;;;;6.47;5.88;;;15.10;99.90;;;;;;5027311;28;20049;-80
2022/05/06 09:22:57;;;;;;;7.25;6.22;;;15.10;99.90;;;;;;5027100;28;20044;-80
2022/05/06 09:25:38;;;;;;;5.90;5.30;;;15.20;99.90;;;;;;5025655;28;20132;-79
2022/05/06 09:28:06;;;;;;;7.00;6.45;;;15.40;99.90;;;;;;5025796;28;20057;-80
2022/05/06 09:30:33;;;;;;;5.95;5.35;;;15.50;99.90;;;;;;5024874;28;20124;-79
2022/05/06 09:32:59;;;;;;;6.32;5.72;;;15.60;99.90;;;;;;5025347;28;20061;-79
2022/05/06 09:35:30;;;;;;;5.80;5.30;;;15.70;99.90;;;;;;5026078;28;20396;-79
2022/05/06 09:37:56;;;;;;;5.72;5.22;;;15.70;99.90;;;;;;5025546;28;20167;-79
2022/05/06 09:40:28;;;;;;;5.60;5.10;;;15.70;99.90;;;;;;5026818;28;20490;-79
2022/05/06 09:42:54;;;;;;;8.43;5.15;;;15.70;99.90;;;;;;5025404;28;20376;-79
2022/05/06 09:45:39;;;;;;;6.95;5.68;;;15.70;99.90;;;;;;5025353;28;20056;-79
2022/05/06 09:48:06;;;;;;;6.43;5.55;;;15.70;99.90;;;;;;5026750;28;20076;-80
2022/05/06 09:50:38;;;;;;;7.97;4.95;;;15.90;99.90;;;;;;5026053;28;20124;-80
2022/05/06 09:53:08;;;;;;;6.22;5.63;;;16.00;99.90;;;;;;5025360;28;20061;-78
2022/05/06 09:55:36;;;;;;;5.28;4.88;;;16.20;99.90;;;;;;5026013;28;20046;-79
2022/05/06 09:58:02;;;;;;;5.68;5.07;;;16.50;99.90;;;;;;5024578;28;20049;-78
2022/05/06 10:00:28;;;;;;;6.47;5.88;;;16.80;99.90;;;;;;5023761;28;20033;-75
2022/05/06 10:02:58;;;;;;;5.50;5.10;;;17.90;99.90;;;;;;5021096;28;20057;-75
2022/05/06 10:05:24;;;;;;;5.45;4.95;;;17.00;99.90;;;;;;5011984;28;20054;-76
2022/05/06 10:07:56;;;;;;;4.32;3.92;;;17.20;99.90;;;;;;5014136;28;20041;-76
2022/05/06 10:10:26;;;;;;;4.13;3.78;;;17.20;99.90;;;;;;5009719;28;20049;-77
2022/05/06 10:12:56;;;;;;;3.90;3.45;;;17.10;99.90;;;;;;5005124;28;20046;-74
2022/05/06 10:15:25;;;;;;;4.95;4.40;;;17.10;99.90;;;;;;5019322;28;20060;-74
2022/05/06 10:17:53;;;;;;;4.53;4.13;;;17.20;99.90;;;;;;5025259;28;20056;-74
2022/05/06 10:20:34;;;;;;;4.88;4.47;;;17.30;99.90;;;;;;5025480;28;20582;-75
2022/05/06 10:23:00;;;;;;;4.45;3.97;;;17.30;99.90;;;;;;5024207;28;20076;-74
2022/05/06 10:25:41;;;;;;;4.18;3.78;;;17.30;99.90;;;;;;5024620;28;20049;-73
2022/05/06 10:34:08;;;;;;;3.17;2.88;;;17.70;99.90;;;;;;5013998;28;20359;-74
2022/05/06 10:36:54;;;;;;;2.97;2.78;;;17.80;99.90;;;;;;5004976;28;20049;-74
2022/05/06 10:39:21;;;;;;;3.42;2.85;;;18.00;99.90;;;;;;5003695;28;20053;-72
2022/05/06 10:42:12;;;;;;;3.78;3.38;;;18.00;99.90;;;;;;5020520;28;20448;-74
2022/05/06 10:44:48;;;;;;;3.20;2.90;;;18.10;99.90;;;;;;5011929;28;20049;-74
2022/05/06 10:47:23;;;;;;;3.50;3.30;;;18.00;99.90;;;;;;5011423;28;20553;-74
2022/05/06 10:49:53;;;;;;;4.57;3.25;;;17.90;99.90;;;;;;5024917;28;20482;-73
2022/05/06 10:52:28;;;;;;;2.95;2.75;;;17.90;99.90;;;;;;5013931;28;20142;-74
2022/05/06 10:54:55;;;;;;;2.90;2.67;;;17.90;99.90;;;;;;5024038;28;20508;-72
2022/05/06 10:57:25;;;;;;;4.35;2.70;;;18.00;99.90;;;;;;5026408;28;20050;-72
2022/05/06 10:59:58;;;;;;;2.17;2.05;;;18.10;99.90;;;;;;5028837;28;20168;-71
2022/05/06 11:02:25;;;;;;;2.40;2.30;;;18.10;99.90;;;;;;5027754;28;20656;-72
2022/05/06 11:05:05;;;;;;;3.35;3.05;;;18.10;99.90;;;;;;5028457;28;20053;-72
2022/05/06 11:07:33;;;;;;;3.03;2.83;;;18.10;99.90;;;;;;5024953;28;20045;-72
2022/05/06 11:09:59;;;;;;;4.57;3.10;;;18.20;99.90;;;;;;5027513;28;20053;-72
2022/05/06 11:12:52;;;;;;;3.95;2.90;;;18.30;99.90;;;;;;5029155;28;20042;-72
2022/05/06 11:15:29;;;;;;;2.35;2.15;;;18.50;99.90;;;;;;5024408;28;20057;-72
2022/05/06 11:18:00;;;;;;;2.67;2.47;;;19.90;99.90;;;;;;5022979;28;20121;-72
2022/05/06 11:20:35;;;;;;;2.72;2.42;;;18.70;99.90;;;;;;5035458;28;20037;-72
2022/05/06 11:23:08;;;;;;;3.40;2.95;;;18.70;99.90;;;;;;5024190;28;20095;-72
2022/05/06 11:25:45;;;;;;;3.45;2.35;;;18.80;99.90;;;;;;5028981;28;20049;-72
2022/05/06 11:28:20;;;;;;;3.15;2.55;;;18.80;99.90;;;;;;5027347;28;20081;-72
2022/05/06 11:30:51;;;;;;;4.47;3.25;;;19.00;99.90;;;;;;5023867;28;20038;-74
2022/05/06 11:33:24;;;;;;;4.97;2.75;;;19.10;99.90;;;;;;5028415;28;20050;-75
2022/05/06 11:36:03;;;;;;;1.90;1.75;;;19.10;99.90;;;;;;5037137;28;20149;-74
2022/05/06 11:38:37;;;;;;;2.65;2.13;;;19.00;99.90;;;;;;5024501;28;20511;-74
2022/05/06 11:41:11;;;;;;;2.35;2.00;;;19.00;99.90;;;;;;5026857;28;20096;-74
2022/05/06 11:43:38;;;;;;;2.47;2.30;;;18.10;99.90;;;;;;5027532;28;20053;-75
2022/05/06 11:48:48;;;;;;;2.53;2.33;;;19.00;99.90;;;;;;5026876;28;20041;-74
2022/05/06 11:51:27;;;;;;;2.30;2.10;;;19.00;99.90;;;;;;5025807;28;20053;-74
2022/05/06 11:53:53;;;;;;;4.32;2.33;;;19.20;99.90;;;;;;5026399;28;20103;-74
2022/05/06 11:56:25;;;;;;;2.60;2.40;;;19.30;99.90;;;;;;5025423;28;20053;-74
2022/05/06 11:58:52;;;;;;;3.42;3.22;;;19.30;99.90;;;;;;5027096;28;20045;-75
2022/05/06 12:01:32;;;;;;;2.65;2.45;;;19.20;99.90;;;;;;5019929;28;20560;-74
2022/05/06 12:04:02;;;;;;;3.92;3.60;;;19.30;99.90;;;;;;5026475;28;20076;-73
2022/05/06 12:06:28;;;;;;;3.80;3.50;;;19.30;99.90;;;;;;5040188;28;20132;-75
2022/05/06 12:09:14;;;;;;;3.25;2.95;;;20.20;99.90;;;;;;5024923;28;20556;-74
2022/05/06 12:11:41;;;;;;;3.70;3.13;;;19.20;99.90;;;;;;5023134;28;20062;-74
2022/05/06 12:14:08;;;;;;;3.80;3.50;;;19.20;99.90;;;;;;5027125;28;20088;-74
2022/05/06 12:16:35;;;;;;;5.72;3.38;;;19.10;99.90;;;;;;5027736;28;20076;-73
2022/05/06 12:19:00;;;;;;;4.18;3.38;;;19.10;99.90;;;;;;5026541;28;20053;-73
2022/05/06 12:21:27;;;;;;;3.85;3.55;;;19.20;99.90;;;;;;5026857;28;20052;-74
2022/05/06 12:23:58;;;;;;;3.97;3.63;;;19.50;99.90;;;;;;5026454;28;20483;-74
2022/05/06 12:26:38;;;;;;;10.07;3.92;;;19.70;99.90;;;;;;5026216;28;20061;-74
2022/05/06 12:29:18;;;;;;;4.13;3.08;;;19.90;99.90;;;;;;5026633;28;20037;-74
2022/05/06 12:31:43;;;;;;;4.40;4.10;;;19.90;99.90;;;;;;5026160;28;20049;-74
2022/05/06 12:34:09;;;;;;;4.00;3.70;;;19.90;99.90;;;;;;5026161;28;20046;-75
2022/05/06 12:36:37;;;;;;;5.53;5.05;;;20.00;99.90;;;;;;5027967;28;20057;-74
2022/05/06 12:39:21;;;;;;;6.50;4.00;;;20.00;99.90;;;;;;5025924;28;20045;-74
2022/05/06 12:41:48;;;;;;;4.97;4.53;;;20.00;99.90;;;;;;5027910;28;20065;-74
2022/05/06 12:44:16;;;;;;;6.13;4.65;;;20.10;99.90;;;;;;5025926;28;20049;-74
2022/05/06 12:46:42;;;;;;;5.15;3.75;;;20.30;99.90;;;;;;5026059;28;20049;-74
2022/05/06 12:51:52;;;;;;;3.65;3.35;;;20.40;99.90;;;;;;5027519;28;20049;-73
2022/05/06 12:54:18;;;;;;;5.43;4.28;;;20.50;99.90;;;;;;5026616;28;20164;-74
2022/05/06 12:56:43;;;;;;;4.85;3.53;;;20.30;99.90;;;;;;5027642;28;20128;-74
2022/05/06 12:59:09;;;;;;;5.47;4.15;;;20.40;99.90;;;;;;5025861;28;20140;-75
2022/05/06 13:01:35;;;;;;;4.53;4.07;;;20.60;99.90;;;;;;5026908;28;20073;-74
2022/05/06 13:04:01;;;;;;;6.07;4.32;;;20.60;99.90;;;;;;5026218;28;20045;-74
2022/05/06 13:06:29;;;;;;;4.40;3.25;;;20.30;99.90;;;;;;5027913;28;20571;-74
2022/05/06 13:08:54;;;;;;;5.10;3.63;;;20.20;99.90;;;;;;5025568;28;20045;-74
2022/05/06 13:11:20;;;;;;;6.72;3.40;;;20.20;99.90;;;;;;5027533;28;20107;-74
2022/05/06 13:13:48;;;;;;;3.78;3.40;;;20.30;99.90;;;;;;5025389;28;20044;-74
2022/05/06 13:16:14;;;;;;;6.13;3.80;;;20.60;99.90;;;;;;5027114;28;20120;-74
2022/05/06 13:18:40;;;;;;;5.75;4.05;;;20.90;99.90;;;;;;5022768;28;20124;-73
2022/05/06 13:21:06;;;;;;;3.47;3.10;;;21.10;99.90;;;;;;5024297;28;20455;-72
2022/05/06 13:23:37;;;;;;;4.60;3.55;;;21.30;99.90;;;;;;5027124;28;20053;-73
2022/05/06 13:26:03;;;;;;;5.20;4.10;;;21.40;99.90;;;;;;5025325;28;20053;-74
2022/05/06 13:28:29;;;;;;;4.85;3.20;;;21.40;99.90;;;;;;5025254;28;20041;-73
2022/05/06 13:30:55;;;;;;;5.97;3.15;;;21.40;99.90;;;;;;5027476;28;20049;-74
2022/05/06 13:33:20;;;;;;;4.63;3.30;;;21.50;99.90;;;;;;5019184;28;20059;-73